This is the latest recevied weather packets stored in our database for station/object DK1ZX-10. If no packets are shown the sender has not sent any weather packets the latest 10 day(s).
| Time | Temp. | Humidity | Pressure | Rain* | Wind** | Luminosity | Snow |
|---|---|---|---|---|---|---|---|
| 1777722569 | 22.78° C | 22% | 1021.6 hPa | - | - | - | - |
| 1777721369 | 23.33° C | 21% | 1021.9 hPa | - | - | - | - |
| 1777720169 | 25° C | 21% | 1022 hPa | - | - | - | - |
| 1777718969 | 26.11° C | 19% | 1022.4 hPa | - | - | - | - |
| 1777717769 | 27.78° C | 18% | 1022.5 hPa | - | - | - | - |
| 1777716569 | 27.78° C | 18% | 1022.8 hPa | - | - | - | - |
| 1777715369 | 30° C | 17% | 1022.9 hPa | - | - | - | - |
| 1777714169 | 33.33° C | 15% | 1023.3 hPa | - | - | - | - |
| 1777712968 | 36.11° C | 12% | 1023.5 hPa | - | - | - | - |
| 1777711768 | 41.11° C | 9% | 1023.7 hPa | - | - | - | - |
| 1777710568 | 40° C | 10% | 1023.8 hPa | - | - | - | - |
| 1777709368 | 42.78° C | 8% | 1024 hPa | - | - | - | - |
| 1777708168 | 39.44° C | 10% | 1024 hPa | - | - | - | - |
| 1777706968 | 41.11° C | 9% | 1024.1 hPa | - | - | - | - |
| 1777705768 | 41.67° C | 9% | 1024.1 hPa | - | - | - | - |
| 1777703360 | 39.44° C | 10% | 1024.3 hPa | - | - | - | - |
| 1777702160 | 35.56° C | 13% | 1024.4 hPa | - | - | - | - |
| 1777700960 | 21.67° C | 29% | 1024.4 hPa | - | - | - | - |
| 1777699760 | 22.22° C | 27% | 1024.5 hPa | - | - | - | - |
| 1777698560 | 19.44° C | 31% | 1024.5 hPa | - | - | - | - |
| 1777697360 | 18.89° C | 32% | 1024.6 hPa | - | - | - | - |
| 1777696160 | 4.44° C | 75% | 1024.8 hPa | - | - | - | - |
| 1777694960 | 3.89° C | 76% | 1024.9 hPa | - | - | - | - |
| 1777693760 | 3.33° C | 77% | 1024.7 hPa | - | - | - | - |
| 1777692560 | 3.33° C | 77% | 1024.7 hPa | - | - | - | - |
* Rain since midnight (hover to see other rain measurements)
** Current wind speed in m/s (hover to see current wind gust speed)